createdAt,value
2023-01-15T00:02:16.662Z,8.98
2023-01-15T00:04:43.802Z,9.68
2023-01-15T00:07:10.764Z,8.80
2023-01-15T00:09:37.699Z,8.90
2023-01-15T00:12:05.100Z,9.23
2023-01-15T00:14:32.073Z,8.88
2023-01-15T00:16:58.973Z,9.65
2023-01-15T00:19:25.902Z,9.02
2023-01-15T00:21:53.982Z,9.27
2023-01-15T00:24:39.453Z,8.77
2023-01-15T00:27:24.869Z,8.48
2023-01-15T00:29:51.811Z,8.98
2023-01-15T00:32:18.762Z,9.45
2023-01-15T00:34:45.664Z,9.68
2023-01-15T00:37:12.603Z,9.32
2023-01-15T00:39:39.495Z,8.57
2023-01-15T00:42:06.451Z,9.23
2023-01-15T00:44:33.806Z,9.32
2023-01-15T00:47:01.075Z,9.95
2023-01-15T00:49:28.086Z,10.45
2023-01-15T00:51:55.103Z,9.70
2023-01-15T00:54:22.214Z,11.20
2023-01-15T00:56:49.145Z,9.48
2023-01-15T00:59:16.096Z,9.98
2023-01-15T01:01:43.615Z,9.73
2023-01-15T01:04:11.719Z,9.18
2023-01-15T01:06:38.774Z,9.65
2023-01-15T01:09:05.698Z,9.95
2023-01-15T01:11:34.537Z,8.98
2023-01-15T01:14:02.725Z,9.20
2023-01-15T01:16:38.700Z,9.70
2023-01-15T01:19:11.543Z,8.73
2023-01-15T01:21:40.377Z,9.47
2023-01-15T01:24:08.428Z,9.38
2023-01-15T01:26:35.753Z,8.60
2023-01-15T01:29:04.125Z,9.73
2023-01-15T01:31:33.474Z,9.85
2023-01-15T01:34:00.580Z,9.82
2023-01-15T01:36:38.964Z,8.95
2023-01-15T01:39:07.836Z,9.70
2023-01-15T01:41:35.016Z,9.48
2023-01-15T01:44:09.325Z,8.32
2023-01-15T01:46:36.740Z,8.63
2023-01-15T01:49:12.347Z,8.20
2023-01-15T01:51:43.565Z,8.23
2023-01-15T01:54:13.276Z,8.45
2023-01-15T01:56:40.299Z,8.98
2023-01-15T01:59:08.897Z,8.95
2023-01-15T02:01:36.512Z,9.43
2023-01-15T02:04:06.835Z,9.25
2023-01-15T02:06:34.817Z,10.52
2023-01-15T02:09:03.129Z,10.98
2023-01-15T02:11:31.668Z,11.10
2023-01-15T02:14:07.871Z,10.73
2023-01-15T02:16:47.371Z,14.88
2023-01-15T02:19:23.090Z,10.57
2023-01-15T02:22:28.186Z,10.05
2023-01-15T02:25:20.096Z,12.48
2023-01-15T02:27:56.704Z,12.82
2023-01-15T02:30:33.086Z,11.98
2023-01-15T02:33:14.128Z,10.02
2023-01-15T02:36:06.450Z,10.48
2023-01-15T02:38:41.220Z,9.93
2023-01-15T02:41:17.629Z,8.70
2023-01-15T02:43:52.954Z,10.13
2023-01-15T02:46:28.731Z,12.45
2023-01-15T02:48:59.173Z,9.60
2023-01-15T02:51:40.224Z,9.65
2023-01-15T02:54:13.104Z,9.98
2023-01-15T02:56:43.081Z,9.35
2023-01-15T02:59:17.676Z,9.25
2023-01-15T03:01:55.517Z,9.15
2023-01-15T03:04:31.761Z,9.82
2023-01-15T03:07:05.773Z,8.38
2023-01-15T03:09:35.472Z,9.23
2023-01-15T03:12:29.925Z,9.90
2023-01-15T03:15:10.845Z,9.45
2023-01-15T03:18:00.242Z,8.35
2023-01-15T03:20:29.452Z,8.48
2023-01-15T03:23:09.139Z,8.27
2023-01-15T03:25:43.662Z,8.50
2023-01-15T03:28:12.259Z,8.77
2023-01-15T03:30:39.889Z,9.02
2023-01-15T03:33:11.567Z,8.57
2023-01-15T03:35:57.618Z,8.80
2023-01-15T03:38:50.700Z,8.15
2023-01-15T03:41:51.083Z,8.30
2023-01-15T03:45:03.276Z,8.32
2023-01-15T03:47:53.498Z,7.53
2023-01-15T03:50:32.277Z,8.23
2023-01-15T03:53:22.756Z,7.88
2023-01-15T03:56:04.545Z,8.05
2023-01-15T03:58:42.390Z,8.60
2023-01-15T04:01:15.190Z,7.28
2023-01-15T04:03:43.855Z,7.68
2023-01-15T04:06:11.685Z,8.07
2023-01-15T04:08:42.000Z,8.05
2023-01-15T04:11:09.272Z,8.40
2023-01-15T04:13:47.017Z,7.53
2023-01-15T04:16:32.255Z,7.32
2023-01-15T04:18:59.670Z,7.50
2023-01-15T04:21:28.051Z,7.72
2023-01-15T04:23:54.986Z,7.13
2023-01-15T04:26:21.967Z,6.72
2023-01-15T04:28:52.862Z,7.57
2023-01-15T04:31:19.993Z,7.45
2023-01-15T04:33:47.103Z,8.23
2023-01-15T04:36:14.610Z,9.45
2023-01-15T04:38:41.642Z,9.10
2023-01-15T04:41:28.067Z,9.57
2023-01-15T04:44:07.193Z,9.02
2023-01-15T04:46:43.082Z,8.23
2023-01-15T04:49:13.796Z,8.70
2023-01-15T04:51:41.142Z,8.98
2023-01-15T04:54:10.307Z,8.98
2023-01-15T04:56:41.537Z,8.15
2023-01-15T04:59:09.286Z,8.57
2023-01-15T05:01:37.323Z,8.40
2023-01-15T05:04:05.065Z,7.32
2023-01-15T05:06:32.557Z,7.45
2023-01-15T05:09:00.955Z,8.15
2023-01-15T05:11:29.188Z,8.18
2023-01-15T05:13:57.031Z,8.75
2023-01-15T05:16:28.589Z,8.25
2023-01-15T05:19:04.626Z,9.00
2023-01-15T05:21:34.485Z,8.75
2023-01-15T05:24:07.007Z,8.73
2023-01-15T05:26:35.998Z,8.75
2023-01-15T05:29:04.860Z,8.48
2023-01-15T05:31:33.780Z,8.40
2023-01-15T05:34:01.182Z,8.55
2023-01-15T05:36:30.294Z,7.45
2023-01-15T05:39:01.583Z,7.90
2023-01-15T05:41:48.595Z,9.02
2023-01-15T05:44:23.351Z,8.90
2023-01-15T05:46:53.371Z,9.13
2023-01-15T05:49:25.838Z,8.20
2023-01-15T05:51:53.782Z,7.57
2023-01-15T05:54:23.812Z,8.30
2023-01-15T05:56:50.861Z,7.88
2023-01-15T05:59:24.883Z,8.40
2023-01-15T06:01:52.898Z,8.15
2023-01-15T06:04:24.772Z,8.00
2023-01-15T06:06:53.633Z,7.85
2023-01-15T06:09:23.145Z,8.30
2023-01-15T06:11:50.594Z,8.57
2023-01-15T06:14:17.857Z,8.50
2023-01-15T06:16:45.916Z,8.32
2023-01-15T06:19:14.324Z,8.00
2023-01-15T06:21:41.889Z,7.65
2023-01-15T06:24:10.934Z,8.50
2023-01-15T06:26:39.563Z,8.15
2023-01-15T06:29:06.799Z,8.15
2023-01-15T06:31:33.894Z,8.43
2023-01-15T06:34:00.890Z,8.20
2023-01-15T06:36:28.712Z,8.07
2023-01-15T06:38:55.752Z,9.05
2023-01-15T06:41:44.313Z,8.18
2023-01-15T06:44:32.792Z,11.25
2023-01-15T06:47:21.269Z,9.52
2023-01-15T06:49:49.941Z,8.85
2023-01-15T06:52:16.934Z,9.25
2023-01-15T06:54:43.941Z,9.73
2023-01-15T06:57:11.767Z,9.88
2023-01-15T06:59:38.863Z,10.30
2023-01-15T07:02:06.098Z,10.20
2023-01-15T07:04:33.446Z,10.52
2023-01-15T07:07:00.414Z,11.00
2023-01-15T07:09:27.457Z,10.77
2023-01-15T07:11:54.451Z,10.50
2023-01-15T07:14:24.041Z,10.52
2023-01-15T07:16:51.936Z,12.25
2023-01-15T07:19:19.832Z,12.43
2023-01-15T07:21:47.113Z,12.65
2023-01-15T07:24:14.911Z,13.48
2023-01-15T07:26:42.947Z,13.23
2023-01-15T07:29:10.238Z,13.63
2023-01-15T07:31:38.691Z,13.93
2023-01-15T07:34:05.825Z,13.20
2023-01-15T07:36:32.907Z,13.10
2023-01-15T07:38:59.910Z,14.05
2023-01-15T07:41:45.535Z,13.20
2023-01-15T07:44:30.922Z,16.63
2023-01-15T07:47:16.737Z,17.88
2023-01-15T07:49:49.237Z,15.00
2023-01-15T07:52:22.142Z,13.18
2023-01-15T07:54:50.552Z,11.63
2023-01-15T07:57:21.292Z,12.55
2023-01-15T07:59:49.594Z,11.90
2023-01-15T08:02:17.236Z,14.10
2023-01-15T08:04:44.709Z,15.45
2023-01-15T08:07:13.017Z,15.88
2023-01-15T08:09:40.142Z,17.30
2023-01-15T08:12:26.346Z,15.07
2023-01-15T08:15:28.548Z,15.82
2023-01-15T08:17:55.507Z,17.17
2023-01-15T08:20:25.660Z,18.52
2023-01-15T08:22:53.356Z,18.80
2023-01-15T08:25:23.605Z,18.45
2023-01-15T08:27:50.732Z,19.48
2023-01-15T08:30:20.917Z,25.88
2023-01-15T08:32:48.142Z,28.98
2023-01-15T08:35:15.243Z,19.63
2023-01-15T08:37:42.853Z,21.75
2023-01-15T08:40:11.749Z,23.08
2023-01-15T08:42:39.447Z,21.63
2023-01-15T08:45:07.482Z,21.35
2023-01-15T08:47:34.802Z,21.10
2023-01-15T08:50:02.454Z,20.95
2023-01-15T08:52:29.450Z,19.90
2023-01-15T08:54:56.411Z,19.98
2023-01-15T08:57:23.344Z,21.38
2023-01-15T08:59:50.233Z,22.45
2023-01-15T09:02:17.845Z,20.48
2023-01-15T09:04:44.895Z,20.60
2023-01-15T09:07:12.636Z,21.27
2023-01-15T09:09:39.684Z,23.83
2023-01-15T09:12:06.972Z,23.05
2023-01-15T09:14:58.143Z,20.35
2023-01-15T09:17:21.012Z,20.67
2023-01-15T09:19:48.039Z,19.25
2023-01-15T09:22:15.159Z,19.13
2023-01-15T09:24:42.081Z,22.27
2023-01-15T09:27:11.867Z,21.17
2023-01-15T09:29:38.810Z,20.83
2023-01-15T09:32:05.923Z,22.48
2023-01-15T09:34:32.837Z,22.48
2023-01-15T09:36:59.752Z,22.80
2023-01-15T09:39:26.657Z,22.98
2023-01-15T09:42:23.881Z,19.33
2023-01-15T09:44:53.879Z,17.63
2023-01-15T09:47:33.872Z,18.85
2023-01-15T09:50:25.842Z,18.48
2023-01-15T09:53:12.985Z,17.73
2023-01-15T09:55:47.177Z,17.75
2023-01-15T09:58:17.125Z,18.98
2023-01-15T10:00:50.424Z,19.88
2023-01-15T10:03:42.310Z,20.52
2023-01-15T10:06:29.358Z,20.67
2023-01-15T10:09:11.768Z,21.63
2023-01-15T10:12:05.384Z,23.80
2023-01-15T10:14:40.353Z,22.20
2023-01-15T10:17:20.951Z,21.92
2023-01-15T10:19:48.025Z,20.00
2023-01-15T10:22:41.448Z,19.90
2023-01-15T10:25:16.969Z,19.67
2023-01-15T10:27:50.752Z,19.92
2023-01-15T10:30:23.081Z,19.58
2023-01-15T10:33:02.898Z,21.15
2023-01-15T10:35:47.643Z,19.92
2023-01-15T10:38:39.268Z,19.65
2023-01-15T10:41:27.602Z,23.52
2023-01-15T10:43:58.125Z,26.80
2023-01-15T10:46:32.436Z,26.27
2023-01-15T10:49:15.273Z,25.02
2023-01-15T10:51:47.852Z,21.30
2023-01-15T10:54:26.658Z,20.92
2023-01-15T10:57:02.124Z,20.40
2023-01-15T10:59:52.525Z,22.23
2023-01-15T11:02:44.416Z,21.42
2023-01-15T11:05:21.453Z,20.35
2023-01-15T11:08:19.435Z,20.30
2023-01-15T11:10:41.231Z,21.35
2023-01-15T11:13:43.243Z,22.25
2023-01-15T11:16:38.745Z,22.48
2023-01-15T11:19:32.263Z,22.08
2023-01-15T11:22:01.270Z,22.33
2023-01-15T11:24:31.044Z,23.67
2023-01-15T11:26:58.905Z,25.92
2023-01-15T11:29:37.558Z,22.40
2023-01-15T11:32:16.915Z,22.45
2023-01-15T11:34:53.968Z,22.05
2023-01-15T11:37:20.899Z,21.65
2023-01-15T11:40:03.878Z,20.20
2023-01-15T11:42:49.201Z,21.85
2023-01-15T11:45:38.076Z,21.85
2023-01-15T11:48:35.110Z,22.10
2023-01-15T11:51:10.727Z,22.02
2023-01-15T11:54:10.915Z,22.40
2023-01-15T11:56:42.991Z,24.17
2023-01-15T11:59:13.494Z,22.88
2023-01-15T12:02:00.081Z,25.10
2023-01-15T12:04:57.055Z,25.20
2023-01-15T12:07:26.227Z,24.88
2023-01-15T12:10:02.377Z,26.25
2023-01-15T12:12:43.516Z,27.73
2023-01-15T12:15:23.961Z,25.98
2023-01-15T12:18:28.895Z,27.15
2023-01-15T12:21:18.356Z,26.13
2023-01-15T12:24:13.702Z,26.30
2023-01-15T12:27:09.886Z,28.98
2023-01-15T12:30:18.340Z,31.08
2023-01-15T12:32:55.732Z,30.67
2023-01-15T12:35:32.493Z,34.38
2023-01-15T12:38:17.675Z,32.05
2023-01-15T12:41:02.246Z,30.40
2023-01-15T12:43:48.378Z,31.20
2023-01-15T12:46:19.166Z,30.70
2023-01-15T12:49:10.261Z,27.58
2023-01-15T12:52:16.189Z,28.90
2023-01-15T12:54:55.606Z,29.60
2023-01-15T12:57:30.796Z,32.17
2023-01-15T13:00:26.767Z,29.80
2023-01-15T13:03:12.231Z,31.73
2023-01-15T13:05:41.441Z,30.13
2023-01-15T13:08:29.162Z,32.67
2023-01-15T13:10:56.434Z,30.88
2023-01-15T13:13:35.632Z,32.40
2023-01-15T13:16:10.203Z,40.22
2023-01-15T13:19:03.430Z,34.85
2023-01-15T13:21:33.529Z,36.15
2023-01-15T13:24:34.144Z,35.50
2023-01-15T13:27:17.059Z,32.97
2023-01-15T13:29:52.343Z,34.08
2023-01-15T13:32:24.286Z,40.22
2023-01-15T13:35:10.429Z,34.00
2023-01-15T13:37:47.103Z,36.67
2023-01-15T13:40:32.858Z,41.88
2023-01-15T13:43:00.709Z,41.55
2023-01-15T13:45:48.115Z,45.50
2023-01-15T13:48:19.799Z,44.00
2023-01-15T13:50:58.320Z,45.75
2023-01-15T13:53:45.578Z,40.80
2023-01-15T13:56:16.962Z,46.72
2023-01-15T13:58:56.149Z,46.40
2023-01-15T14:01:26.767Z,51.45
2023-01-15T14:04:07.003Z,52.80
2023-01-15T14:06:41.806Z,46.30
2023-01-15T14:09:29.776Z,45.58
2023-01-15T14:12:02.465Z,52.75
2023-01-15T14:14:50.940Z,52.15
2023-01-15T14:17:53.660Z,48.15
2023-01-15T14:20:58.902Z,53.60
2023-01-15T14:23:38.069Z,50.35
2023-01-15T14:26:33.002Z,48.67
2023-01-15T14:29:11.634Z,55.72
2023-01-15T14:31:57.221Z,51.63
2023-01-15T14:34:28.723Z,52.47
2023-01-15T14:37:04.744Z,59.22
2023-01-15T14:39:52.135Z,57.97
2023-01-15T14:42:40.545Z,51.75
2023-01-15T14:45:07.627Z,60.95
2023-01-15T14:47:51.175Z,69.57
2023-01-15T14:50:33.706Z,64.00
2023-01-15T14:53:15.673Z,69.18
2023-01-15T14:56:18.766Z,64.07
2023-01-15T14:59:03.884Z,59.08
2023-01-15T15:01:39.354Z,55.42
2023-01-15T15:04:15.392Z,51.90
2023-01-15T15:07:01.186Z,49.30
2023-01-15T15:10:03.495Z,47.83
2023-01-15T15:12:48.555Z,49.47
2023-01-15T15:15:34.989Z,49.25
2023-01-15T15:18:29.414Z,48.35
2023-01-15T15:23:44.994Z,43.45
2023-01-15T15:26:30.079Z,44.70
2023-01-15T15:29:02.122Z,51.78
2023-01-15T15:31:33.600Z,52.47
2023-01-15T15:34:02.264Z,58.50
2023-01-15T15:36:32.723Z,65.03
2023-01-15T15:39:05.109Z,85.00
2023-01-15T15:41:54.484Z,70.65
2023-01-15T15:45:14.252Z,91.65
2023-01-15T15:48:01.596Z,65.00
2023-01-15T15:50:31.313Z,77.38
2023-01-15T15:52:59.049Z,79.40
2023-01-15T15:55:33.914Z,60.03
2023-01-15T15:58:03.375Z,65.90
2023-01-15T16:00:34.381Z,62.70
2023-01-15T16:03:07.426Z,63.80
2023-01-15T16:05:34.744Z,133.10
2023-01-15T16:08:13.860Z,75.15
2023-01-15T16:10:41.080Z,54.20
2023-01-15T16:13:22.662Z,55.55
2023-01-15T16:15:50.954Z,51.35
2023-01-15T16:18:49.828Z,51.15
2023-01-15T16:21:20.033Z,51.97
2023-01-15T16:24:05.005Z,50.65
2023-01-15T16:26:49.889Z,53.05
2023-01-15T16:29:23.651Z,51.85
2023-01-15T16:34:21.511Z,51.63
2023-01-15T16:36:48.588Z,48.28
2023-01-15T16:39:24.720Z,50.47
2023-01-15T16:41:57.589Z,48.47
2023-01-15T16:44:39.602Z,52.63
2023-01-15T16:47:07.029Z,47.55
2023-01-15T16:49:34.787Z,44.58
2023-01-15T16:52:03.450Z,47.15
2023-01-15T16:54:30.471Z,46.42
2023-01-15T16:57:06.000Z,48.70
2023-01-15T16:59:33.281Z,46.00
2023-01-15T17:02:13.556Z,46.08
2023-01-15T17:04:45.354Z,46.03
2023-01-15T17:07:15.235Z,79.07
2023-01-15T17:09:52.164Z,59.47
2023-01-15T17:12:27.945Z,51.83
2023-01-15T17:14:54.909Z,54.53
2023-01-15T17:17:21.741Z,54.50
2023-01-15T17:19:49.774Z,55.70
2023-01-15T17:22:24.903Z,55.20
2023-01-15T17:24:53.789Z,53.80
2023-01-15T17:27:20.715Z,54.80
2023-01-15T17:29:47.845Z,52.17
2023-01-15T17:32:41.842Z,46.90
2023-01-15T17:35:25.577Z,45.15
2023-01-15T17:37:52.453Z,45.10
2023-01-15T17:40:19.584Z,49.85
2023-01-15T17:42:46.741Z,53.78
2023-01-15T17:45:19.200Z,50.40
2023-01-15T17:47:46.511Z,45.53
2023-01-15T17:50:14.709Z,43.65
2023-01-15T17:52:42.807Z,45.03
2023-01-15T17:55:32.396Z,45.03
2023-01-15T17:58:17.695Z,42.67
2023-01-15T18:01:03.577Z,46.65
2023-01-15T18:03:49.014Z,50.38
2023-01-15T18:06:17.439Z,44.05
2023-01-15T18:08:50.333Z,45.05
2023-01-15T18:11:17.325Z,46.60
2023-01-15T18:13:44.317Z,45.30
2023-01-15T18:16:11.445Z,45.65
2023-01-15T18:18:38.385Z,45.13
2023-01-15T18:21:05.488Z,45.72
2023-01-15T18:23:39.497Z,44.80
2023-01-15T18:26:07.986Z,38.45
2023-01-15T18:28:40.868Z,33.33
2023-01-15T18:31:07.927Z,33.27
2023-01-15T18:33:35.205Z,33.30
2023-01-15T18:36:12.954Z,36.15
2023-01-15T18:38:43.815Z,38.00
2023-01-15T18:41:35.220Z,38.95
2023-01-15T18:44:25.386Z,37.60
2023-01-15T18:46:55.609Z,36.20
2023-01-15T18:49:22.558Z,37.05
2023-01-15T18:52:08.113Z,40.53
2023-01-15T18:54:36.091Z,41.50
2023-01-15T18:57:03.550Z,39.92
2023-01-15T18:59:30.489Z,41.65
2023-01-15T19:01:58.851Z,48.97
2023-01-15T19:04:26.830Z,46.83
2023-01-15T19:06:54.304Z,47.90
2023-01-15T19:09:24.168Z,54.38
2023-01-15T19:11:52.696Z,54.80
2023-01-15T19:14:39.359Z,55.03
2023-01-15T19:17:45.364Z,51.50
2023-01-15T19:20:14.480Z,56.60
2023-01-15T19:22:59.436Z,108.10
2023-01-15T19:25:29.252Z,80.07
2023-01-15T19:27:57.977Z,77.22
2023-01-15T19:30:26.826Z,71.05
2023-01-15T19:32:53.829Z,75.47
2023-01-15T19:35:20.713Z,65.75
2023-01-15T19:37:47.757Z,57.40
2023-01-15T19:40:26.971Z,66.30
2023-01-15T19:43:13.194Z,54.90
2023-01-15T19:46:03.623Z,59.72
2023-01-15T19:48:49.434Z,57.83
2023-01-15T19:51:16.418Z,61.88
2023-01-15T19:53:43.432Z,55.55
2023-01-15T19:56:10.489Z,56.42
2023-01-15T19:58:37.437Z,65.68
2023-01-15T20:01:04.890Z,66.00
2023-01-15T20:03:31.911Z,66.32
2023-01-15T20:05:59.643Z,70.57
2023-01-15T20:08:27.066Z,66.68
2023-01-15T20:10:54.020Z,64.47
2023-01-15T20:13:42.154Z,54.50
2023-01-15T20:16:19.801Z,62.83
2023-01-15T20:18:50.855Z,59.60
2023-01-15T20:21:18.706Z,50.92
2023-01-15T20:23:46.414Z,59.17
2023-01-15T20:26:15.128Z,55.88
2023-01-15T20:28:43.031Z,57.72
2023-01-15T20:31:19.899Z,52.38
2023-01-15T20:33:47.639Z,59.75
2023-01-15T20:36:15.019Z,59.10
2023-01-15T20:38:42.044Z,64.43
2023-01-15T20:41:29.344Z,59.38
2023-01-15T20:44:14.778Z,64.63
2023-01-15T20:46:42.112Z,63.45
2023-01-15T20:49:32.510Z,73.35
2023-01-15T20:52:01.388Z,68.22
2023-01-15T20:54:28.511Z,61.22
2023-01-15T20:56:55.497Z,72.10
2023-01-15T20:59:22.467Z,71.95
2023-01-15T21:01:49.404Z,73.82
2023-01-15T21:04:16.464Z,79.50
2023-01-15T21:06:43.530Z,72.25
2023-01-15T21:09:10.499Z,60.03
2023-01-15T21:11:37.444Z,56.63
2023-01-15T21:14:04.428Z,59.03
2023-01-15T21:16:31.340Z,55.15
2023-01-15T21:19:01.097Z,61.10
2023-01-15T21:21:28.186Z,60.20
2023-01-15T21:23:55.304Z,52.72
2023-01-15T21:26:24.417Z,57.17
2023-01-15T21:28:54.931Z,57.60
2023-01-15T21:31:22.187Z,54.58
2023-01-15T21:33:49.181Z,59.40
2023-01-15T21:36:16.461Z,55.83
2023-01-15T21:38:43.342Z,54.67
2023-01-15T21:41:12.785Z,60.35
2023-01-15T21:43:58.729Z,55.90
2023-01-15T21:46:29.132Z,67.40
2023-01-15T21:48:57.903Z,70.05
2023-01-15T21:51:26.745Z,66.30
2023-01-15T21:53:54.001Z,70.95
2023-01-15T21:56:20.897Z,66.22
2023-01-15T21:58:47.870Z,62.28
2023-01-15T22:01:18.039Z,80.00
2023-01-15T22:03:45.947Z,85.95
2023-01-15T22:06:13.138Z,101.63
2023-01-15T22:08:40.314Z,95.05
2023-01-15T22:11:10.963Z,89.85
2023-01-15T22:13:38.729Z,67.93
2023-01-15T22:16:05.973Z,82.70
2023-01-15T22:18:33.856Z,80.47
2023-01-15T22:21:03.223Z,75.15
2023-01-15T22:23:31.048Z,114.90
2023-01-15T22:25:57.949Z,81.35
2023-01-15T22:28:24.904Z,90.00
2023-01-15T22:30:51.824Z,82.43
2023-01-15T22:33:18.842Z,75.88
2023-01-15T22:35:55.288Z,85.82
2023-01-15T22:38:22.273Z,73.43
2023-01-15T22:40:49.189Z,82.63
2023-01-15T22:43:16.138Z,75.78
2023-01-15T22:45:43.180Z,76.45
2023-01-15T22:48:11.347Z,66.82
2023-01-15T22:50:38.564Z,60.65
2023-01-15T22:53:05.489Z,58.88
2023-01-15T22:55:32.383Z,67.75
2023-01-15T22:57:59.318Z,63.60
2023-01-15T23:00:26.273Z,61.42
2023-01-15T23:02:56.348Z,58.42
2023-01-15T23:05:24.520Z,67.35
2023-01-15T23:07:51.476Z,52.28
2023-01-15T23:10:18.503Z,49.40
2023-01-15T23:12:45.475Z,49.63
2023-01-15T23:15:14.015Z,59.60
2023-01-15T23:17:41.770Z,62.33
2023-01-15T23:20:10.665Z,37.42
2023-01-15T23:22:37.620Z,57.70
2023-01-15T23:25:05.144Z,45.28
2023-01-15T23:27:32.058Z,49.72
2023-01-15T23:29:58.989Z,42.38
2023-01-15T23:32:25.960Z,54.38
2023-01-15T23:34:52.884Z,47.58
2023-01-15T23:37:19.855Z,37.33
2023-01-15T23:39:46.747Z,39.00
2023-01-15T23:42:32.073Z,40.22
2023-01-15T23:45:17.516Z,40.58
2023-01-15T23:47:45.123Z,39.95
2023-01-15T23:50:12.009Z,41.78
2023-01-15T23:52:38.950Z,35.75
2023-01-15T23:55:06.034Z,45.50
2023-01-15T23:57:32.961Z,43.10
